sensor_id;sensor_type;location;lat;lon;timestamp;P1;durP1;ratioP1;P2;durP2;ratioP2
9716;SDS011;4897;43.570;27.832;2023-03-14T00:02:01;7.00;;;4.22;;
9716;SDS011;4897;43.570;27.832;2023-03-14T00:04:28;6.38;;;3.63;;
9716;SDS011;4897;43.570;27.832;2023-03-14T00:06:55;10.57;;;4.00;;
9716;SDS011;4897;43.570;27.832;2023-03-14T00:09:22;7.68;;;4.40;;
9716;SDS011;4897;43.570;27.832;2023-03-14T00:11:50;7.57;;;4.75;;
9716;SDS011;4897;43.570;27.832;2023-03-14T00:14:17;12.38;;;5.55;;
9716;SDS011;4897;43.570;27.832;2023-03-14T00:16:45;17.08;;;6.10;;
9716;SDS011;4897;43.570;27.832;2023-03-14T00:19:12;10.25;;;5.97;;
9716;SDS011;4897;43.570;27.832;2023-03-14T00:21:39;9.60;;;6.15;;
9716;SDS011;4897;43.570;27.832;2023-03-14T00:24:06;11.95;;;5.90;;
9716;SDS011;4897;43.570;27.832;2023-03-14T00:26:34;11.85;;;5.60;;
9716;SDS011;4897;43.570;27.832;2023-03-14T00:29:02;7.88;;;4.47;;
9716;SDS011;4897;43.570;27.832;2023-03-14T00:31:29;6.38;;;4.35;;
9716;SDS011;4897;43.570;27.832;2023-03-14T00:33:56;4.72;;;3.00;;
9716;SDS011;4897;43.570;27.832;2023-03-14T00:36:23;5.25;;;2.80;;
9716;SDS011;4897;43.570;27.832;2023-03-14T00:38:50;4.50;;;2.63;;
9716;SDS011;4897;43.570;27.832;2023-03-14T00:41:18;4.97;;;2.60;;
9716;SDS011;4897;43.570;27.832;2023-03-14T00:43:47;4.85;;;2.85;;
9716;SDS011;4897;43.570;27.832;2023-03-14T00:46:15;4.85;;;3.00;;
9716;SDS011;4897;43.570;27.832;2023-03-14T00:48:43;4.30;;;2.53;;
9716;SDS011;4897;43.570;27.832;2023-03-14T00:51:11;4.95;;;2.83;;
9716;SDS011;4897;43.570;27.832;2023-03-14T00:53:39;6.53;;;3.25;;
9716;SDS011;4897;43.570;27.832;2023-03-14T00:56:06;11.98;;;4.03;;
9716;SDS011;4897;43.570;27.832;2023-03-14T00:58:35;7.78;;;3.22;;
9716;SDS011;4897;43.570;27.832;2023-03-14T01:01:05;6.55;;;3.83;;
9716;SDS011;4897;43.570;27.832;2023-03-14T01:03:34;7.57;;;3.50;;
9716;SDS011;4897;43.570;27.832;2023-03-14T01:06:08;4.85;;;2.88;;
9716;SDS011;4897;43.570;27.832;2023-03-14T01:08:36;14.13;;;3.47;;
9716;SDS011;4897;43.570;27.832;2023-03-14T01:11:07;4.85;;;2.60;;
9716;SDS011;4897;43.570;27.832;2023-03-14T01:13:36;3.45;;;2.58;;
9716;SDS011;4897;43.570;27.832;2023-03-14T01:16:04;4.18;;;2.92;;
9716;SDS011;4897;43.570;27.832;2023-03-14T01:18:34;10.10;;;3.92;;
9716;SDS011;4897;43.570;27.832;2023-03-14T01:21:01;17.95;;;8.93;;
9716;SDS011;4897;43.570;27.832;2023-03-14T01:23:28;10.48;;;6.53;;
9716;SDS011;4897;43.570;27.832;2023-03-14T01:25:55;12.10;;;5.95;;
9716;SDS011;4897;43.570;27.832;2023-03-14T01:28:22;11.30;;;5.97;;
9716;SDS011;4897;43.570;27.832;2023-03-14T01:30:49;12.18;;;5.97;;
9716;SDS011;4897;43.570;27.832;2023-03-14T01:33:15;9.40;;;5.72;;
9716;SDS011;4897;43.570;27.832;2023-03-14T01:35:43;9.35;;;5.95;;
9716;SDS011;4897;43.570;27.832;2023-03-14T01:38:11;12.40;;;5.93;;
9716;SDS011;4897;43.570;27.832;2023-03-14T01:40:41;8.23;;;5.07;;
9716;SDS011;4897;43.570;27.832;2023-03-14T01:43:13;13.27;;;6.57;;
9716;SDS011;4897;43.570;27.832;2023-03-14T01:48:53;9.70;;;5.50;;
9716;SDS011;4897;43.570;27.832;2023-03-14T01:51:30;9.77;;;5.63;;
9716;SDS011;4897;43.570;27.832;2023-03-14T01:54:06;8.55;;;5.25;;
9716;SDS011;4897;43.570;27.832;2023-03-14T01:56:36;12.52;;;5.80;;
9716;SDS011;4897;43.570;27.832;2023-03-14T01:59:06;10.40;;;5.47;;
9716;SDS011;4897;43.570;27.832;2023-03-14T02:01:34;10.90;;;5.20;;
9716;SDS011;4897;43.570;27.832;2023-03-14T02:04:03;10.65;;;5.70;;
9716;SDS011;4897;43.570;27.832;2023-03-14T02:06:36;9.55;;;5.65;;
9716;SDS011;4897;43.570;27.832;2023-03-14T02:09:08;13.48;;;5.75;;
9716;SDS011;4897;43.570;27.832;2023-03-14T02:11:35;10.50;;;5.65;;
9716;SDS011;4897;43.570;27.832;2023-03-14T02:14:02;12.43;;;6.15;;
9716;SDS011;4897;43.570;27.832;2023-03-14T02:16:31;20.70;;;6.60;;
9716;SDS011;4897;43.570;27.832;2023-03-14T02:18:58;11.98;;;6.97;;
9716;SDS011;4897;43.570;27.832;2023-03-14T02:21:27;11.38;;;6.28;;
9716;SDS011;4897;43.570;27.832;2023-03-14T02:24:09;12.18;;;6.15;;
9716;SDS011;4897;43.570;27.832;2023-03-14T02:27:00;11.00;;;6.28;;
9716;SDS011;4897;43.570;27.832;2023-03-14T02:29:29;13.30;;;6.80;;
9716;SDS011;4897;43.570;27.832;2023-03-14T02:31:58;15.45;;;6.43;;
9716;SDS011;4897;43.570;27.832;2023-03-14T02:34:25;15.65;;;7.80;;
9716;SDS011;4897;43.570;27.832;2023-03-14T02:36:52;13.98;;;8.05;;
9716;SDS011;4897;43.570;27.832;2023-03-14T02:39:21;15.65;;;7.82;;
9716;SDS011;4897;43.570;27.832;2023-03-14T02:41:54;16.55;;;7.97;;
9716;SDS011;4897;43.570;27.832;2023-03-14T02:44:22;8.52;;;5.07;;
9716;SDS011;4897;43.570;27.832;2023-03-14T02:46:49;15.40;;;7.78;;
9716;SDS011;4897;43.570;27.832;2023-03-14T02:49:16;13.18;;;6.18;;
9716;SDS011;4897;43.570;27.832;2023-03-14T02:51:43;10.68;;;4.95;;
9716;SDS011;4897;43.570;27.832;2023-03-14T02:54:12;6.82;;;3.80;;
9716;SDS011;4897;43.570;27.832;2023-03-14T02:56:40;7.25;;;3.50;;
9716;SDS011;4897;43.570;27.832;2023-03-14T02:59:07;6.82;;;3.10;;
9716;SDS011;4897;43.570;27.832;2023-03-14T03:01:35;4.70;;;2.78;;
9716;SDS011;4897;43.570;27.832;2023-03-14T03:04:02;7.38;;;4.22;;
9716;SDS011;4897;43.570;27.832;2023-03-14T03:06:30;9.63;;;5.25;;
9716;SDS011;4897;43.570;27.832;2023-03-14T03:08:57;11.60;;;5.40;;
9716;SDS011;4897;43.570;27.832;2023-03-14T03:11:24;14.25;;;4.97;;
9716;SDS011;4897;43.570;27.832;2023-03-14T03:13:51;11.88;;;5.28;;
9716;SDS011;4897;43.570;27.832;2023-03-14T03:16:17;10.77;;;3.88;;
9716;SDS011;4897;43.570;27.832;2023-03-14T03:18:46;8.90;;;4.68;;
9716;SDS011;4897;43.570;27.832;2023-03-14T03:21:12;6.65;;;3.85;;
9716;SDS011;4897;43.570;27.832;2023-03-14T03:23:41;6.90;;;4.53;;
9716;SDS011;4897;43.570;27.832;2023-03-14T03:26:08;10.82;;;6.28;;
9716;SDS011;4897;43.570;27.832;2023-03-14T03:28:35;16.02;;;7.43;;
9716;SDS011;4897;43.570;27.832;2023-03-14T03:31:06;13.45;;;8.45;;
9716;SDS011;4897;43.570;27.832;2023-03-14T03:33:33;16.48;;;8.10;;
9716;SDS011;4897;43.570;27.832;2023-03-14T03:36:03;13.90;;;7.15;;
9716;SDS011;4897;43.570;27.832;2023-03-14T03:38:30;13.07;;;6.78;;
9716;SDS011;4897;43.570;27.832;2023-03-14T03:40:57;11.38;;;7.05;;
9716;SDS011;4897;43.570;27.832;2023-03-14T03:43:24;12.20;;;6.00;;
9716;SDS011;4897;43.570;27.832;2023-03-14T03:45:51;11.60;;;6.40;;
9716;SDS011;4897;43.570;27.832;2023-03-14T03:48:17;13.80;;;5.68;;
9716;SDS011;4897;43.570;27.832;2023-03-14T03:50:45;22.75;;;8.27;;
9716;SDS011;4897;43.570;27.832;2023-03-14T03:53:13;22.27;;;9.55;;
9716;SDS011;4897;43.570;27.832;2023-03-14T03:55:40;16.90;;;8.98;;
9716;SDS011;4897;43.570;27.832;2023-03-14T03:58:08;14.63;;;7.07;;
9716;SDS011;4897;43.570;27.832;2023-03-14T04:00:35;20.60;;;7.95;;
9716;SDS011;4897;43.570;27.832;2023-03-14T04:03:01;11.73;;;6.47;;
9716;SDS011;4897;43.570;27.832;2023-03-14T04:05:28;12.90;;;6.80;;
9716;SDS011;4897;43.570;27.832;2023-03-14T04:07:55;24.60;;;7.47;;
9716;SDS011;4897;43.570;27.832;2023-03-14T04:10:24;15.63;;;7.55;;
9716;SDS011;4897;43.570;27.832;2023-03-14T04:12:50;11.85;;;6.88;;
9716;SDS011;4897;43.570;27.832;2023-03-14T04:15:17;15.55;;;7.28;;
9716;SDS011;4897;43.570;27.832;2023-03-14T04:17:44;21.27;;;8.52;;
9716;SDS011;4897;43.570;27.832;2023-03-14T04:20:11;16.95;;;9.07;;
9716;SDS011;4897;43.570;27.832;2023-03-14T04:22:38;18.42;;;7.50;;
9716;SDS011;4897;43.570;27.832;2023-03-14T04:25:06;13.73;;;6.93;;
9716;SDS011;4897;43.570;27.832;2023-03-14T04:27:35;17.52;;;7.93;;
9716;SDS011;4897;43.570;27.832;2023-03-14T04:30:02;16.40;;;6.35;;
9716;SDS011;4897;43.570;27.832;2023-03-14T04:32:29;9.40;;;5.00;;
9716;SDS011;4897;43.570;27.832;2023-03-14T04:34:56;11.85;;;4.63;;
9716;SDS011;4897;43.570;27.832;2023-03-14T04:37:23;9.30;;;4.20;;
9716;SDS011;4897;43.570;27.832;2023-03-14T04:39:50;8.35;;;4.68;;
9716;SDS011;4897;43.570;27.832;2023-03-14T04:42:17;7.38;;;4.43;;
9716;SDS011;4897;43.570;27.832;2023-03-14T04:44:45;15.02;;;5.00;;
9716;SDS011;4897;43.570;27.832;2023-03-14T04:47:14;8.30;;;4.45;;
9716;SDS011;4897;43.570;27.832;2023-03-14T04:49:41;104.65;;;39.63;;
9716;SDS011;4897;43.570;27.832;2023-03-14T04:52:08;201.77;;;64.82;;
9716;SDS011;4897;43.570;27.832;2023-03-14T04:54:35;154.40;;;53.97;;
9716;SDS011;4897;43.570;27.832;2023-03-14T04:57:02;103.35;;;31.60;;
9716;SDS011;4897;43.570;27.832;2023-03-14T04:59:29;15.77;;;8.18;;
9716;SDS011;4897;43.570;27.832;2023-03-14T05:01:57;13.93;;;5.80;;
9716;SDS011;4897;43.570;27.832;2023-03-14T05:04:24;11.32;;;5.05;;
9716;SDS011;4897;43.570;27.832;2023-03-14T05:06:50;11.43;;;4.85;;
9716;SDS011;4897;43.570;27.832;2023-03-14T05:09:17;9.85;;;4.50;;
9716;SDS011;4897;43.570;27.832;2023-03-14T05:11:44;9.10;;;4.00;;
9716;SDS011;4897;43.570;27.832;2023-03-14T05:14:11;17.02;;;7.00;;
9716;SDS011;4897;43.570;27.832;2023-03-14T05:16:38;22.83;;;9.18;;
9716;SDS011;4897;43.570;27.832;2023-03-14T05:19:06;18.60;;;9.10;;
9716;SDS011;4897;43.570;27.832;2023-03-14T05:21:33;56.38;;;24.42;;
9716;SDS011;4897;43.570;27.832;2023-03-14T05:24:00;59.53;;;23.48;;
9716;SDS011;4897;43.570;27.832;2023-03-14T05:26:27;59.95;;;23.20;;
9716;SDS011;4897;43.570;27.832;2023-03-14T05:28:53;68.70;;;25.77;;
9716;SDS011;4897;43.570;27.832;2023-03-14T05:31:21;69.90;;;28.35;;
9716;SDS011;4897;43.570;27.832;2023-03-14T05:33:48;25.23;;;9.98;;
9716;SDS011;4897;43.570;27.832;2023-03-14T05:36:16;16.20;;;7.78;;
9716;SDS011;4897;43.570;27.832;2023-03-14T05:38:43;20.60;;;9.13;;
9716;SDS011;4897;43.570;27.832;2023-03-14T05:41:10;12.38;;;6.97;;
9716;SDS011;4897;43.570;27.832;2023-03-14T05:43:37;6.82;;;3.15;;
9716;SDS011;4897;43.570;27.832;2023-03-14T05:46:04;19.13;;;7.85;;
9716;SDS011;4897;43.570;27.832;2023-03-14T05:48:31;6.38;;;2.95;;
9716;SDS011;4897;43.570;27.832;2023-03-14T05:50:58;5.20;;;2.53;;
9716;SDS011;4897;43.570;27.832;2023-03-14T05:53:27;4.85;;;2.40;;
9716;SDS011;4897;43.570;27.832;2023-03-14T05:55:55;5.43;;;2.53;;
9716;SDS011;4897;43.570;27.832;2023-03-14T05:58:23;5.80;;;2.55;;
9716;SDS011;4897;43.570;27.832;2023-03-14T06:00:50;5.15;;;2.65;;
9716;SDS011;4897;43.570;27.832;2023-03-14T06:03:17;8.25;;;2.58;;
9716;SDS011;4897;43.570;27.832;2023-03-14T06:05:44;5.97;;;2.53;;
9716;SDS011;4897;43.570;27.832;2023-03-14T06:08:11;3.58;;;2.25;;
9716;SDS011;4897;43.570;27.832;2023-03-14T06:10:39;6.07;;;2.60;;
9716;SDS011;4897;43.570;27.832;2023-03-14T06:13:07;2.85;;;1.90;;
9716;SDS011;4897;43.570;27.832;2023-03-14T06:15:34;9.43;;;2.42;;
9716;SDS011;4897;43.570;27.832;2023-03-14T06:18:01;2.72;;;1.80;;
9716;SDS011;4897;43.570;27.832;2023-03-14T06:20:29;3.22;;;1.80;;
9716;SDS011;4897;43.570;27.832;2023-03-14T06:22:55;2.10;;;1.50;;
9716;SDS011;4897;43.570;27.832;2023-03-14T06:25:22;3.75;;;1.92;;
9716;SDS011;4897;43.570;27.832;2023-03-14T06:27:51;2.13;;;1.58;;
9716;SDS011;4897;43.570;27.832;2023-03-14T06:30:18;3.38;;;1.38;;
9716;SDS011;4897;43.570;27.832;2023-03-14T06:32:45;2.63;;;1.30;;
9716;SDS011;4897;43.570;27.832;2023-03-14T06:35:12;2.33;;;1.35;;
9716;SDS011;4897;43.570;27.832;2023-03-14T06:37:39;2.85;;;1.90;;
9716;SDS011;4897;43.570;27.832;2023-03-14T06:40:06;2.65;;;1.33;;
9716;SDS011;4897;43.570;27.832;2023-03-14T06:42:34;2.55;;;1.40;;
9716;SDS011;4897;43.570;27.832;2023-03-14T06:45:03;3.05;;;1.52;;
9716;SDS011;4897;43.570;27.832;2023-03-14T06:47:30;3.03;;;2.05;;
9716;SDS011;4897;43.570;27.832;2023-03-14T06:49:57;2.95;;;1.73;;
9716;SDS011;4897;43.570;27.832;2023-03-14T06:52:24;2.53;;;1.80;;
9716;SDS011;4897;43.570;27.832;2023-03-14T06:54:51;8.52;;;2.78;;
9716;SDS011;4897;43.570;27.832;2023-03-14T06:57:18;3.78;;;1.63;;
9716;SDS011;4897;43.570;27.832;2023-03-14T06:59:45;1.70;;;1.20;;
9716;SDS011;4897;43.570;27.832;2023-03-14T07:02:14;1.95;;;1.48;;
9716;SDS011;4897;43.570;27.832;2023-03-14T07:04:41;3.33;;;1.35;;
9716;SDS011;4897;43.570;27.832;2023-03-14T07:07:08;2.58;;;1.20;;
9716;SDS011;4897;43.570;27.832;2023-03-14T07:09:35;2.72;;;1.48;;
9716;SDS011;4897;43.570;27.832;2023-03-14T07:12:02;5.35;;;1.50;;
9716;SDS011;4897;43.570;27.832;2023-03-14T07:14:30;5.15;;;1.58;;
9716;SDS011;4897;43.570;27.832;2023-03-14T07:16:57;2.40;;;1.30;;
9716;SDS011;4897;43.570;27.832;2023-03-14T07:19:25;4.65;;;1.77;;
9716;SDS011;4897;43.570;27.832;2023-03-14T07:21:52;8.50;;;2.25;;
9716;SDS011;4897;43.570;27.832;2023-03-14T07:24:19;2.08;;;1.58;;
9716;SDS011;4897;43.570;27.832;2023-03-14T07:26:46;4.25;;;1.90;;
9716;SDS011;4897;43.570;27.832;2023-03-14T07:29:13;4.13;;;2.15;;
9716;SDS011;4897;43.570;27.832;2023-03-14T07:31:40;2.95;;;1.27;;
9716;SDS011;4897;43.570;27.832;2023-03-14T07:34:07;1.98;;;1.60;;
9716;SDS011;4897;43.570;27.832;2023-03-14T07:36:36;2.53;;;1.55;;
9716;SDS011;4897;43.570;27.832;2023-03-14T07:39:03;4.38;;;1.90;;
9716;SDS011;4897;43.570;27.832;2023-03-14T07:41:30;3.85;;;2.10;;
9716;SDS011;4897;43.570;27.832;2023-03-14T07:43:59;2.45;;;1.67;;
9716;SDS011;4897;43.570;27.832;2023-03-14T07:46:26;2.25;;;1.23;;
9716;SDS011;4897;43.570;27.832;2023-03-14T07:48:52;4.38;;;1.50;;
9716;SDS011;4897;43.570;27.832;2023-03-14T07:51:19;4.50;;;1.50;;
9716;SDS011;4897;43.570;27.832;2023-03-14T07:53:47;3.33;;;1.42;;
9716;SDS011;4897;43.570;27.832;2023-03-14T07:56:14;4.40;;;1.20;;
9716;SDS011;4897;43.570;27.832;2023-03-14T07:58:41;2.65;;;1.40;;
9716;SDS011;4897;43.570;27.832;2023-03-14T08:01:08;2.42;;;1.52;;
9716;SDS011;4897;43.570;27.832;2023-03-14T08:03:35;3.22;;;1.58;;
9716;SDS011;4897;43.570;27.832;2023-03-14T08:06:02;2.63;;;1.50;;
9716;SDS011;4897;43.570;27.832;2023-03-14T08:08:29;4.05;;;1.38;;
9716;SDS011;4897;43.570;27.832;2023-03-14T08:11:03;2.75;;;1.48;;
9716;SDS011;4897;43.570;27.832;2023-03-14T08:13:30;2.55;;;1.20;;
9716;SDS011;4897;43.570;27.832;2023-03-14T08:15:57;4.45;;;1.52;;
9716;SDS011;4897;43.570;27.832;2023-03-14T08:18:24;1.65;;;1.13;;
9716;SDS011;4897;43.570;27.832;2023-03-14T08:20:51;2.30;;;1.55;;
9716;SDS011;4897;43.570;27.832;2023-03-14T08:23:18;5.20;;;2.05;;
9716;SDS011;4897;43.570;27.832;2023-03-14T08:25:45;5.15;;;1.65;;
9716;SDS011;4897;43.570;27.832;2023-03-14T08:28:16;3.33;;;1.75;;
9716;SDS011;4897;43.570;27.832;2023-03-14T08:30:44;5.22;;;1.55;;
9716;SDS011;4897;43.570;27.832;2023-03-14T08:33:11;2.83;;;1.25;;
9716;SDS011;4897;43.570;27.832;2023-03-14T08:35:38;3.58;;;1.52;;
9716;SDS011;4897;43.570;27.832;2023-03-14T08:38:05;4.72;;;1.60;;
9716;SDS011;4897;43.570;27.832;2023-03-14T08:40:32;3.88;;;1.17;;
9716;SDS011;4897;43.570;27.832;2023-03-14T08:42:59;1.92;;;1.13;;
9716;SDS011;4897;43.570;27.832;2023-03-14T08:45:28;1.98;;;1.10;;
9716;SDS011;4897;43.570;27.832;2023-03-14T08:47:55;4.55;;;1.33;;
9716;SDS011;4897;43.570;27.832;2023-03-14T08:50:21;2.00;;;1.40;;
9716;SDS011;4897;43.570;27.832;2023-03-14T08:52:49;3.95;;;1.50;;
9716;SDS011;4897;43.570;27.832;2023-03-14T08:55:16;2.85;;;1.35;;
9716;SDS011;4897;43.570;27.832;2023-03-14T08:57:43;3.20;;;1.60;;
9716;SDS011;4897;43.570;27.832;2023-03-14T09:00:10;1.92;;;1.20;;
9716;SDS011;4897;43.570;27.832;2023-03-14T09:02:41;2.00;;;1.48;;
9716;SDS011;4897;43.570;27.832;2023-03-14T09:05:09;5.05;;;1.10;;
9716;SDS011;4897;43.570;27.832;2023-03-14T09:07:36;2.00;;;1.45;;
9716;SDS011;4897;43.570;27.832;2023-03-14T09:10:04;2.97;;;1.15;;
9716;SDS011;4897;43.570;27.832;2023-03-14T09:12:31;3.15;;;1.48;;
9716;SDS011;4897;43.570;27.832;2023-03-14T09:14:58;2.53;;;1.40;;
9716;SDS011;4897;43.570;27.832;2023-03-14T09:17:26;2.08;;;1.10;;
9716;SDS011;4897;43.570;27.832;2023-03-14T09:19:54;3.38;;;1.52;;
9716;SDS011;4897;43.570;27.832;2023-03-14T09:22:21;2.05;;;1.40;;
9716;SDS011;4897;43.570;27.832;2023-03-14T09:24:48;1.77;;;1.00;;
9716;SDS011;4897;43.570;27.832;2023-03-14T09:27:15;4.07;;;1.40;;
9716;SDS011;4897;43.570;27.832;2023-03-14T09:29:42;1.90;;;1.38;;
9716;SDS011;4897;43.570;27.832;2023-03-14T09:32:08;2.17;;;1.30;;
9716;SDS011;4897;43.570;27.832;2023-03-14T09:34:35;2.30;;;1.10;;
9716;SDS011;4897;43.570;27.832;2023-03-14T09:37:04;2.10;;;1.00;;
9716;SDS011;4897;43.570;27.832;2023-03-14T09:39:30;2.00;;;0.90;;
9716;SDS011;4897;43.570;27.832;2023-03-14T09:41:57;3.17;;;1.90;;
9716;SDS011;4897;43.570;27.832;2023-03-14T09:44:30;3.83;;;1.23;;
9716;SDS011;4897;43.570;27.832;2023-03-14T09:47:02;3.70;;;1.27;;
9716;SDS011;4897;43.570;27.832;2023-03-14T09:49:33;1.85;;;1.15;;
9716;SDS011;4897;43.570;27.832;2023-03-14T09:52:05;1.10;;;0.85;;
9716;SDS011;4897;43.570;27.832;2023-03-14T09:54:38;2.20;;;1.77;;
9716;SDS011;4897;43.570;27.832;2023-03-14T09:57:11;2.60;;;1.35;;
9716;SDS011;4897;43.570;27.832;2023-03-14T09:59:40;2.65;;;1.25;;
9716;SDS011;4897;43.570;27.832;2023-03-14T10:02:15;2.70;;;1.23;;
9716;SDS011;4897;43.570;27.832;2023-03-14T10:04:44;1.10;;;0.82;;
9716;SDS011;4897;43.570;27.832;2023-03-14T10:07:14;3.78;;;1.27;;
9716;SDS011;4897;43.570;27.832;2023-03-14T10:09:44;3.35;;;1.50;;
9716;SDS011;4897;43.570;27.832;2023-03-14T10:12:13;1.83;;;1.30;;
9716;SDS011;4897;43.570;27.832;2023-03-14T10:14:45;2.28;;;1.50;;
9716;SDS011;4897;43.570;27.832;2023-03-14T10:17:14;3.72;;;1.48;;
9716;SDS011;4897;43.570;27.832;2023-03-14T10:19:53;3.28;;;0.90;;
9716;SDS011;4897;43.570;27.832;2023-03-14T10:22:23;5.20;;;1.30;;
9716;SDS011;4897;43.570;27.832;2023-03-14T10:24:53;1.88;;;1.20;;
9716;SDS011;4897;43.570;27.832;2023-03-14T10:27:22;2.58;;;1.40;;
9716;SDS011;4897;43.570;27.832;2023-03-14T10:29:54;1.98;;;1.40;;
9716;SDS011;4897;43.570;27.832;2023-03-14T10:32:28;1.83;;;1.30;;
9716;SDS011;4897;43.570;27.832;2023-03-14T10:35:06;4.13;;;1.25;;
9716;SDS011;4897;43.570;27.832;2023-03-14T10:37:36;2.53;;;1.55;;
9716;SDS011;4897;43.570;27.832;2023-03-14T10:40:16;3.97;;;1.70;;
9716;SDS011;4897;43.570;27.832;2023-03-14T10:42:44;2.58;;;1.40;;
9716;SDS011;4897;43.570;27.832;2023-03-14T10:45:22;5.07;;;1.33;;
9716;SDS011;4897;43.570;27.832;2023-03-14T10:47:56;4.68;;;1.55;;
9716;SDS011;4897;43.570;27.832;2023-03-14T10:50:26;2.63;;;1.80;;
9716;SDS011;4897;43.570;27.832;2023-03-14T10:52:55;1.98;;;1.35;;
9716;SDS011;4897;43.570;27.832;2023-03-14T10:55:23;317.05;;;27.85;;
9716;SDS011;4897;43.570;27.832;2023-03-14T10:57:51;7.40;;;1.85;;
9716;SDS011;4897;43.570;27.832;2023-03-14T11:00:19;3.75;;;1.70;;
9716;SDS011;4897;43.570;27.832;2023-03-14T11:02:58;11.07;;;2.13;;
9716;SDS011;4897;43.570;27.832;2023-03-14T11:05:34;17.77;;;2.92;;
9716;SDS011;4897;43.570;27.832;2023-03-14T11:08:09;4.32;;;2.33;;
9716;SDS011;4897;43.570;27.832;2023-03-14T11:10:41;3.45;;;2.03;;
9716;SDS011;4897;43.570;27.832;2023-03-14T11:13:15;5.88;;;1.95;;
9716;SDS011;4897;43.570;27.832;2023-03-14T11:15:50;10.85;;;1.63;;
9716;SDS011;4897;43.570;27.832;2023-03-14T11:18:46;1.50;;;1.27;;
9716;SDS011;4897;43.570;27.832;2023-03-14T11:21:24;2.88;;;1.38;;
9716;SDS011;4897;43.570;27.832;2023-03-14T11:24:10;6.18;;;1.13;;
9716;SDS011;4897;43.570;27.832;2023-03-14T11:26:54;3.35;;;1.20;;
9716;SDS011;4897;43.570;27.832;2023-03-14T11:29:31;186.07;;;16.85;;
9716;SDS011;4897;43.570;27.832;2023-03-14T11:32:08;332.63;;;31.17;;
9716;SDS011;4897;43.570;27.832;2023-03-14T11:34:40;3.60;;;1.40;;
9716;SDS011;4897;43.570;27.832;2023-03-14T11:37:14;1.90;;;1.20;;
9716;SDS011;4897;43.570;27.832;2023-03-14T11:39:47;2.05;;;0.90;;
9716;SDS011;4897;43.570;27.832;2023-03-14T11:42:22;2.20;;;1.48;;
9716;SDS011;4897;43.570;27.832;2023-03-14T11:44:50;8.48;;;1.83;;
9716;SDS011;4897;43.570;27.832;2023-03-14T11:47:20;4.05;;;1.55;;
9716;SDS011;4897;43.570;27.832;2023-03-14T11:49:51;5.40;;;1.95;;
9716;SDS011;4897;43.570;27.832;2023-03-14T11:52:25;2.60;;;1.20;;
9716;SDS011;4897;43.570;27.832;2023-03-14T11:54:58;1.13;;;1.02;;
9716;SDS011;4897;43.570;27.832;2023-03-14T11:57:31;5.55;;;1.40;;
9716;SDS011;4897;43.570;27.832;2023-03-14T11:59:59;1.58;;;1.02;;
9716;SDS011;4897;43.570;27.832;2023-03-14T12:02:35;3.45;;;1.00;;
9716;SDS011;4897;43.570;27.832;2023-03-14T12:11:12;111.68;;;12.93;;
9716;SDS011;4897;43.570;27.832;2023-03-14T12:13:46;291.65;;;32.72;;
9716;SDS011;4897;43.570;27.832;2023-03-14T12:25:00;78.32;;;8.45;;
9716;SDS011;4897;43.570;27.832;2023-03-14T12:30:42;14.95;;;2.72;;
9716;SDS011;4897;43.570;27.832;2023-03-14T12:33:19;215.20;;;19.35;;
9716;SDS011;4897;43.570;27.832;2023-03-14T12:35:48;14.27;;;2.42;;
9716;SDS011;4897;43.570;27.832;2023-03-14T12:38:17;5.72;;;1.23;;
9716;SDS011;4897;43.570;27.832;2023-03-14T12:40:54;2.15;;;1.30;;
9716;SDS011;4897;43.570;27.832;2023-03-14T12:43:29;3.15;;;1.33;;
9716;SDS011;4897;43.570;27.832;2023-03-14T12:46:08;5.35;;;1.33;;
9716;SDS011;4897;43.570;27.832;2023-03-14T12:48:43;2.70;;;1.40;;
9716;SDS011;4897;43.570;27.832;2023-03-14T12:51:12;7.35;;;2.13;;
9716;SDS011;4897;43.570;27.832;2023-03-14T12:53:47;141.63;;;14.50;;
9716;SDS011;4897;43.570;27.832;2023-03-14T12:56:45;54.47;;;6.93;;
9716;SDS011;4897;43.570;27.832;2023-03-14T12:59:30;2.10;;;1.00;;
9716;SDS011;4897;43.570;27.832;2023-03-14T13:02:00;41.92;;;5.20;;
9716;SDS011;4897;43.570;27.832;2023-03-14T13:04:43;9.23;;;1.77;;
9716;SDS011;4897;43.570;27.832;2023-03-14T13:07:11;1.52;;;1.15;;
9716;SDS011;4897;43.570;27.832;2023-03-14T13:12:29;3.40;;;1.45;;
9716;SDS011;4897;43.570;27.832;2023-03-14T13:15:02;3.05;;;1.40;;
9716;SDS011;4897;43.570;27.832;2023-03-14T13:17:39;6.88;;;1.70;;
9716;SDS011;4897;43.570;27.832;2023-03-14T13:20:10;87.55;;;10.98;;
9716;SDS011;4897;43.570;27.832;2023-03-14T13:22:45;153.35;;;15.35;;
9716;SDS011;4897;43.570;27.832;2023-03-14T13:25:13;4.22;;;1.70;;
9716;SDS011;4897;43.570;27.832;2023-03-14T13:27:41;3.03;;;1.50;;
9716;SDS011;4897;43.570;27.832;2023-03-14T13:30:17;5.90;;;2.05;;
9716;SDS011;4897;43.570;27.832;2023-03-14T13:32:48;3.40;;;1.70;;
9716;SDS011;4897;43.570;27.832;2023-03-14T13:35:20;5.07;;;1.58;;
9716;SDS011;4897;43.570;27.832;2023-03-14T13:37:56;3.95;;;2.72;;
9716;SDS011;4897;43.570;27.832;2023-03-14T13:40:25;4.13;;;1.25;;
9716;SDS011;4897;43.570;27.832;2023-03-14T13:43:05;2.67;;;1.10;;
9716;SDS011;4897;43.570;27.832;2023-03-14T13:45:48;1.70;;;1.20;;
9716;SDS011;4897;43.570;27.832;2023-03-14T13:48:17;3.10;;;1.55;;
9716;SDS011;4897;43.570;27.832;2023-03-14T13:50:51;2.50;;;1.38;;
9716;SDS011;4897;43.570;27.832;2023-03-14T13:53:20;2.80;;;1.65;;
9716;SDS011;4897;43.570;27.832;2023-03-14T13:55:48;4.38;;;1.20;;
9716;SDS011;4897;43.570;27.832;2023-03-14T13:58:25;2.08;;;1.50;;
9716;SDS011;4897;43.570;27.832;2023-03-14T14:01:04;3.80;;;2.10;;
9716;SDS011;4897;43.570;27.832;2023-03-14T14:03:38;4.57;;;1.80;;
9716;SDS011;4897;43.570;27.832;2023-03-14T14:06:08;2.55;;;1.42;;
9716;SDS011;4897;43.570;27.832;2023-03-14T14:08:42;3.42;;;1.83;;
9716;SDS011;4897;43.570;27.832;2023-03-14T14:11:12;6.40;;;1.30;;
9716;SDS011;4897;43.570;27.832;2023-03-14T14:13:47;8.88;;;2.40;;
9716;SDS011;4897;43.570;27.832;2023-03-14T14:16:17;4.63;;;2.45;;
9716;SDS011;4897;43.570;27.832;2023-03-14T14:18:51;5.20;;;2.08;;
9716;SDS011;4897;43.570;27.832;2023-03-14T14:21:21;3.58;;;1.60;;
9716;SDS011;4897;43.570;27.832;2023-03-14T14:23:48;3.90;;;2.42;;
9716;SDS011;4897;43.570;27.832;2023-03-14T14:26:16;5.47;;;2.38;;
9716;SDS011;4897;43.570;27.832;2023-03-14T14:28:44;8.30;;;1.77;;
9716;SDS011;4897;43.570;27.832;2023-03-14T14:31:20;3.35;;;2.00;;
9716;SDS011;4897;43.570;27.832;2023-03-14T14:33:54;9.18;;;4.40;;
9716;SDS011;4897;43.570;27.832;2023-03-14T14:36:23;3.60;;;2.13;;
9716;SDS011;4897;43.570;27.832;2023-03-14T14:38:53;3.10;;;2.08;;
9716;SDS011;4897;43.570;27.832;2023-03-14T14:41:26;1.80;;;1.50;;
9716;SDS011;4897;43.570;27.832;2023-03-14T14:43:55;3.05;;;1.75;;
9716;SDS011;4897;43.570;27.832;2023-03-14T14:46:25;4.50;;;1.98;;
9716;SDS011;4897;43.570;27.832;2023-03-14T14:48:55;7.22;;;1.40;;
9716;SDS011;4897;43.570;27.832;2023-03-14T14:51:24;2.53;;;1.92;;
9716;SDS011;4897;43.570;27.832;2023-03-14T14:54:02;2.85;;;2.15;;
9716;SDS011;4897;43.570;27.832;2023-03-14T14:56:35;3.22;;;2.15;;
9716;SDS011;4897;43.570;27.832;2023-03-14T14:59:03;2.72;;;1.70;;
9716;SDS011;4897;43.570;27.832;2023-03-14T15:01:34;8.02;;;2.88;;
9716;SDS011;4897;43.570;27.832;2023-03-14T15:04:04;2.58;;;1.38;;
9716;SDS011;4897;43.570;27.832;2023-03-14T15:06:38;4.22;;;2.00;;
9716;SDS011;4897;43.570;27.832;2023-03-14T15:09:08;5.80;;;2.33;;
9716;SDS011;4897;43.570;27.832;2023-03-14T15:11:37;1.98;;;1.50;;
9716;SDS011;4897;43.570;27.832;2023-03-14T15:14:04;3.33;;;1.52;;
9716;SDS011;4897;43.570;27.832;2023-03-14T15:16:31;2.67;;;1.58;;
9716;SDS011;4897;43.570;27.832;2023-03-14T15:19:01;2.67;;;1.73;;
9716;SDS011;4897;43.570;27.832;2023-03-14T15:21:30;4.15;;;2.42;;
9716;SDS011;4897;43.570;27.832;2023-03-14T15:23:58;5.75;;;2.33;;
9716;SDS011;4897;43.570;27.832;2023-03-14T15:26:26;4.30;;;1.80;;
9716;SDS011;4897;43.570;27.832;2023-03-14T15:28:54;8.98;;;2.30;;
9716;SDS011;4897;43.570;27.832;2023-03-14T15:31:23;3.40;;;2.10;;
9716;SDS011;4897;43.570;27.832;2023-03-14T15:33:53;6.72;;;2.88;;